sensor_id;sensor_type;location;lat;lon;timestamp;P1;durP1;ratioP1;P2;durP2;ratioP2
54599;SDS011;40500;51.084;16.958;2022-12-10T00:01:15;57.00;;;21.70;;
54599;SDS011;40500;51.084;16.958;2022-12-10T00:04:07;74.80;;;27.80;;
54599;SDS011;40500;51.084;16.958;2022-12-10T00:07:04;91.90;;;33.70;;
54599;SDS011;40500;51.084;16.958;2022-12-10T00:10:00;63.30;;;25.70;;
54599;SDS011;40500;51.084;16.958;2022-12-10T00:12:43;63.80;;;25.70;;
54599;SDS011;40500;51.084;16.958;2022-12-10T00:15:46;66.90;;;26.70;;
54599;SDS011;40500;51.084;16.958;2022-12-10T00:18:43;82.70;;;30.40;;
54599;SDS011;40500;51.084;16.958;2022-12-10T00:21:43;54.70;;;22.80;;
54599;SDS011;40500;51.084;16.958;2022-12-10T00:24:38;79.80;;;32.30;;
54599;SDS011;40500;51.084;16.958;2022-12-10T00:27:31;69.90;;;27.50;;
54599;SDS011;40500;51.084;16.958;2022-12-10T00:30:22;72.70;;;27.40;;
54599;SDS011;40500;51.084;16.958;2022-12-10T00:32:59;65.70;;;25.50;;
54599;SDS011;40500;51.084;16.958;2022-12-10T00:35:34;65.90;;;24.60;;
54599;SDS011;40500;51.084;16.958;2022-12-10T00:38:05;66.70;;;24.90;;
54599;SDS011;40500;51.084;16.958;2022-12-10T00:40:38;73.90;;;26.80;;
54599;SDS011;40500;51.084;16.958;2022-12-10T00:43:31;56.90;;;21.40;;
54599;SDS011;40500;51.084;16.958;2022-12-10T00:46:25;71.40;;;27.90;;
54599;SDS011;40500;51.084;16.958;2022-12-10T00:49:23;60.70;;;22.10;;
54599;SDS011;40500;51.084;16.958;2022-12-10T00:52:21;61.60;;;23.10;;
54599;SDS011;40500;51.084;16.958;2022-12-10T00:55:28;55.60;;;21.50;;
54599;SDS011;40500;51.084;16.958;2022-12-10T00:58:01;63.00;;;22.40;;
54599;SDS011;40500;51.084;16.958;2022-12-10T01:00:35;69.70;;;26.00;;
54599;SDS011;40500;51.084;16.958;2022-12-10T01:03:10;60.10;;;23.10;;
54599;SDS011;40500;51.084;16.958;2022-12-10T01:06:11;46.90;;;19.60;;
54599;SDS011;40500;51.084;16.958;2022-12-10T01:08:47;59.40;;;23.30;;
54599;SDS011;40500;51.084;16.958;2022-12-10T01:11:22;54.80;;;22.20;;
54599;SDS011;40500;51.084;16.958;2022-12-10T01:13:59;74.50;;;26.90;;
54599;SDS011;40500;51.084;16.958;2022-12-10T01:16:31;73.30;;;26.30;;
54599;SDS011;40500;51.084;16.958;2022-12-10T01:19:06;62.80;;;23.80;;
54599;SDS011;40500;51.084;16.958;2022-12-10T01:21:37;58.40;;;22.60;;
54599;SDS011;40500;51.084;16.958;2022-12-10T01:24:09;57.90;;;22.60;;
54599;SDS011;40500;51.084;16.958;2022-12-10T01:26:45;55.60;;;21.20;;
54599;SDS011;40500;51.084;16.958;2022-12-10T01:29:17;59.70;;;24.50;;
54599;SDS011;40500;51.084;16.958;2022-12-10T01:31:49;57.40;;;22.40;;
54599;SDS011;40500;51.084;16.958;2022-12-10T01:34:23;75.70;;;25.80;;
54599;SDS011;40500;51.084;16.958;2022-12-10T01:36:57;57.20;;;21.90;;
54599;SDS011;40500;51.084;16.958;2022-12-10T01:39:31;66.20;;;23.50;;
54599;SDS011;40500;51.084;16.958;2022-12-10T01:42:04;77.30;;;26.30;;
54599;SDS011;40500;51.084;16.958;2022-12-10T01:47:29;78.80;;;27.90;;
54599;SDS011;40500;51.084;16.958;2022-12-10T01:50:03;69.70;;;23.90;;
54599;SDS011;40500;51.084;16.958;2022-12-10T01:52:38;64.60;;;24.40;;
54599;SDS011;40500;51.084;16.958;2022-12-10T01:58:10;54.30;;;20.60;;
54599;SDS011;40500;51.084;16.958;2022-12-10T02:00:49;58.80;;;21.10;;
54599;SDS011;40500;51.084;16.958;2022-12-10T02:03:30;52.50;;;20.10;;
54599;SDS011;40500;51.084;16.958;2022-12-10T02:06:18;60.30;;;23.90;;
54599;SDS011;40500;51.084;16.958;2022-12-10T02:09:00;49.60;;;21.10;;
54599;SDS011;40500;51.084;16.958;2022-12-10T02:11:40;86.50;;;27.50;;
54599;SDS011;40500;51.084;16.958;2022-12-10T02:14:18;61.40;;;21.50;;
54599;SDS011;40500;51.084;16.958;2022-12-10T02:16:58;51.40;;;21.90;;
54599;SDS011;40500;51.084;16.958;2022-12-10T02:19:38;66.70;;;24.00;;
54599;SDS011;40500;51.084;16.958;2022-12-10T02:22:23;83.50;;;28.90;;
54599;SDS011;40500;51.084;16.958;2022-12-10T02:24:58;62.20;;;22.00;;
54599;SDS011;40500;51.084;16.958;2022-12-10T02:27:35;69.00;;;24.20;;
54599;SDS011;40500;51.084;16.958;2022-12-10T02:30:15;72.50;;;26.80;;
54599;SDS011;40500;51.084;16.958;2022-12-10T02:32:47;51.70;;;20.30;;
54599;SDS011;40500;51.084;16.958;2022-12-10T02:35:22;67.20;;;23.20;;
54599;SDS011;40500;51.084;16.958;2022-12-10T02:37:59;61.10;;;22.50;;
54599;SDS011;40500;51.084;16.958;2022-12-10T02:40:37;67.50;;;24.30;;
54599;SDS011;40500;51.084;16.958;2022-12-10T02:43:16;53.60;;;20.60;;
54599;SDS011;40500;51.084;16.958;2022-12-10T02:45:49;50.40;;;20.60;;
54599;SDS011;40500;51.084;16.958;2022-12-10T02:48:23;49.40;;;19.20;;
54599;SDS011;40500;51.084;16.958;2022-12-10T02:50:58;76.70;;;25.90;;
54599;SDS011;40500;51.084;16.958;2022-12-10T02:53:33;84.40;;;29.20;;
54599;SDS011;40500;51.084;16.958;2022-12-10T02:56:13;61.30;;;20.20;;
54599;SDS011;40500;51.084;16.958;2022-12-10T02:58:57;62.80;;;21.00;;
54599;SDS011;40500;51.084;16.958;2022-12-10T03:01:38;63.20;;;20.80;;
54599;SDS011;40500;51.084;16.958;2022-12-10T03:04:20;56.90;;;19.50;;
54599;SDS011;40500;51.084;16.958;2022-12-10T03:07:01;55.20;;;19.80;;
54599;SDS011;40500;51.084;16.958;2022-12-10T03:09:36;52.80;;;20.10;;
54599;SDS011;40500;51.084;16.958;2022-12-10T03:12:15;68.80;;;22.40;;
54599;SDS011;40500;51.084;16.958;2022-12-10T03:14:51;60.10;;;21.20;;
54599;SDS011;40500;51.084;16.958;2022-12-10T03:17:28;66.40;;;22.90;;
54599;SDS011;40500;51.084;16.958;2022-12-10T03:20:04;72.30;;;25.90;;
54599;SDS011;40500;51.084;16.958;2022-12-10T03:22:42;78.90;;;27.10;;
54599;SDS011;40500;51.084;16.958;2022-12-10T03:25:17;71.10;;;25.80;;
54599;SDS011;40500;51.084;16.958;2022-12-10T03:27:56;68.80;;;23.70;;
54599;SDS011;40500;51.084;16.958;2022-12-10T03:30:32;62.90;;;22.40;;
54599;SDS011;40500;51.084;16.958;2022-12-10T03:33:07;66.40;;;22.20;;
54599;SDS011;40500;51.084;16.958;2022-12-10T03:35:41;56.50;;;18.40;;
54599;SDS011;40500;51.084;16.958;2022-12-10T03:38:17;59.20;;;21.00;;
54599;SDS011;40500;51.084;16.958;2022-12-10T03:40:48;54.80;;;20.10;;
54599;SDS011;40500;51.084;16.958;2022-12-10T03:43:21;53.20;;;20.20;;
54599;SDS011;40500;51.084;16.958;2022-12-10T03:45:59;61.30;;;22.20;;
54599;SDS011;40500;51.084;16.958;2022-12-10T03:48:31;63.10;;;22.80;;
54599;SDS011;40500;51.084;16.958;2022-12-10T03:51:06;56.30;;;20.80;;
54599;SDS011;40500;51.084;16.958;2022-12-10T03:53:42;54.80;;;20.30;;
54599;SDS011;40500;51.084;16.958;2022-12-10T03:56:17;49.90;;;17.90;;
54599;SDS011;40500;51.084;16.958;2022-12-10T04:01:21;56.30;;;20.20;;
54599;SDS011;40500;51.084;16.958;2022-12-10T04:03:55;77.40;;;26.60;;
54599;SDS011;40500;51.084;16.958;2022-12-10T04:06:28;71.60;;;22.80;;
54599;SDS011;40500;51.084;16.958;2022-12-10T04:09:04;90.40;;;30.80;;
54599;SDS011;40500;51.084;16.958;2022-12-10T04:11:39;61.00;;;22.90;;
54599;SDS011;40500;51.084;16.958;2022-12-10T04:14:12;55.80;;;19.90;;
54599;SDS011;40500;51.084;16.958;2022-12-10T04:17:03;61.30;;;19.60;;
54599;SDS011;40500;51.084;16.958;2022-12-10T04:19:36;53.80;;;20.50;;
54599;SDS011;40500;51.084;16.958;2022-12-10T04:22:08;49.60;;;19.20;;
54599;SDS011;40500;51.084;16.958;2022-12-10T04:24:59;55.50;;;20.20;;
54599;SDS011;40500;51.084;16.958;2022-12-10T04:27:50;60.30;;;19.90;;
54599;SDS011;40500;51.084;16.958;2022-12-10T04:30:22;46.00;;;18.90;;
54599;SDS011;40500;51.084;16.958;2022-12-10T04:32:52;50.30;;;19.50;;
54599;SDS011;40500;51.084;16.958;2022-12-10T04:35:24;46.50;;;18.00;;
54599;SDS011;40500;51.084;16.958;2022-12-10T04:37:55;56.20;;;20.70;;
54599;SDS011;40500;51.084;16.958;2022-12-10T04:40:26;46.90;;;19.00;;
54599;SDS011;40500;51.084;16.958;2022-12-10T04:42:59;58.10;;;20.50;;
54599;SDS011;40500;51.084;16.958;2022-12-10T04:45:33;50.90;;;19.60;;
54599;SDS011;40500;51.084;16.958;2022-12-10T04:48:07;44.00;;;18.50;;
54599;SDS011;40500;51.084;16.958;2022-12-10T04:50:40;45.00;;;17.80;;
54599;SDS011;40500;51.084;16.958;2022-12-10T04:53:11;50.30;;;20.80;;
54599;SDS011;40500;51.084;16.958;2022-12-10T04:55:46;63.90;;;24.00;;
54599;SDS011;40500;51.084;16.958;2022-12-10T04:58:18;51.40;;;21.60;;
54599;SDS011;40500;51.084;16.958;2022-12-10T05:00:50;45.60;;;17.80;;
54599;SDS011;40500;51.084;16.958;2022-12-10T05:03:22;59.40;;;24.50;;
54599;SDS011;40500;51.084;16.958;2022-12-10T05:05:56;40.70;;;16.40;;
54599;SDS011;40500;51.084;16.958;2022-12-10T05:08:33;44.90;;;18.40;;
54599;SDS011;40500;51.084;16.958;2022-12-10T05:11:07;49.10;;;18.30;;
54599;SDS011;40500;51.084;16.958;2022-12-10T05:13:42;55.60;;;20.60;;
54599;SDS011;40500;51.084;16.958;2022-12-10T05:16:16;40.70;;;16.60;;
54599;SDS011;40500;51.084;16.958;2022-12-10T05:18:50;36.70;;;16.50;;
54599;SDS011;40500;51.084;16.958;2022-12-10T05:21:26;42.70;;;18.40;;
54599;SDS011;40500;51.084;16.958;2022-12-10T05:24:19;35.10;;;15.00;;
54599;SDS011;40500;51.084;16.958;2022-12-10T05:26:53;49.90;;;20.60;;
54599;SDS011;40500;51.084;16.958;2022-12-10T05:29:27;42.50;;;19.00;;
54599;SDS011;40500;51.084;16.958;2022-12-10T05:32:03;50.30;;;21.70;;
54599;SDS011;40500;51.084;16.958;2022-12-10T05:34:37;46.50;;;19.90;;
54599;SDS011;40500;51.084;16.958;2022-12-10T05:37:10;38.20;;;16.70;;
54599;SDS011;40500;51.084;16.958;2022-12-10T05:39:42;37.30;;;16.50;;
54599;SDS011;40500;51.084;16.958;2022-12-10T05:42:23;43.30;;;17.60;;
54599;SDS011;40500;51.084;16.958;2022-12-10T05:44:56;38.50;;;16.70;;
54599;SDS011;40500;51.084;16.958;2022-12-10T05:47:28;40.60;;;18.50;;
54599;SDS011;40500;51.084;16.958;2022-12-10T05:49:59;41.30;;;17.60;;
54599;SDS011;40500;51.084;16.958;2022-12-10T05:52:35;38.60;;;17.00;;
54599;SDS011;40500;51.084;16.958;2022-12-10T05:55:09;33.20;;;15.30;;
54599;SDS011;40500;51.084;16.958;2022-12-10T05:57:40;46.70;;;18.90;;
54599;SDS011;40500;51.084;16.958;2022-12-10T06:00:15;37.30;;;16.70;;
54599;SDS011;40500;51.084;16.958;2022-12-10T06:02:46;45.90;;;19.90;;
54599;SDS011;40500;51.084;16.958;2022-12-10T06:05:18;38.20;;;16.80;;
54599;SDS011;40500;51.084;16.958;2022-12-10T06:08:33;39.60;;;16.60;;
54599;SDS011;40500;51.084;16.958;2022-12-10T06:11:10;44.00;;;19.30;;
54599;SDS011;40500;51.084;16.958;2022-12-10T06:13:43;49.60;;;21.70;;
54599;SDS011;40500;51.084;16.958;2022-12-10T06:16:26;39.20;;;17.70;;
54599;SDS011;40500;51.084;16.958;2022-12-10T06:18:59;33.00;;;14.50;;
54599;SDS011;40500;51.084;16.958;2022-12-10T06:21:30;36.40;;;17.40;;
54599;SDS011;40500;51.084;16.958;2022-12-10T06:24:04;40.70;;;17.50;;
54599;SDS011;40500;51.084;16.958;2022-12-10T06:26:35;40.60;;;18.40;;
54599;SDS011;40500;51.084;16.958;2022-12-10T06:29:08;39.60;;;15.70;;
54599;SDS011;40500;51.084;16.958;2022-12-10T06:31:41;46.70;;;18.30;;
54599;SDS011;40500;51.084;16.958;2022-12-10T06:34:14;37.20;;;15.90;;
54599;SDS011;40500;51.084;16.958;2022-12-10T06:36:48;44.50;;;17.90;;
54599;SDS011;40500;51.084;16.958;2022-12-10T06:39:21;39.40;;;17.40;;
54599;SDS011;40500;51.084;16.958;2022-12-10T06:41:52;49.00;;;19.00;;
54599;SDS011;40500;51.084;16.958;2022-12-10T06:44:28;53.00;;;20.80;;
54599;SDS011;40500;51.084;16.958;2022-12-10T06:47:04;46.90;;;20.50;;
54599;SDS011;40500;51.084;16.958;2022-12-10T06:49:57;41.10;;;17.20;;
54599;SDS011;40500;51.084;16.958;2022-12-10T06:52:29;42.90;;;17.90;;
54599;SDS011;40500;51.084;16.958;2022-12-10T06:55:22;58.90;;;22.20;;
54599;SDS011;40500;51.084;16.958;2022-12-10T06:57:56;47.10;;;19.40;;
54599;SDS011;40500;51.084;16.958;2022-12-10T07:00:31;46.60;;;18.00;;
54599;SDS011;40500;51.084;16.958;2022-12-10T07:03:05;51.40;;;19.60;;
54599;SDS011;40500;51.084;16.958;2022-12-10T07:05:40;67.10;;;25.90;;
54599;SDS011;40500;51.084;16.958;2022-12-10T07:08:14;54.60;;;22.40;;
54599;SDS011;40500;51.084;16.958;2022-12-10T07:11:09;47.50;;;19.20;;
54599;SDS011;40500;51.084;16.958;2022-12-10T07:13:42;55.20;;;20.60;;
54599;SDS011;40500;51.084;16.958;2022-12-10T07:16:14;56.30;;;20.30;;
54599;SDS011;40500;51.084;16.958;2022-12-10T07:18:50;52.90;;;19.50;;
54599;SDS011;40500;51.084;16.958;2022-12-10T07:21:25;40.90;;;18.40;;
54599;SDS011;40500;51.084;16.958;2022-12-10T07:24:03;45.70;;;18.70;;
54599;SDS011;40500;51.084;16.958;2022-12-10T07:26:36;47.80;;;19.60;;
54599;SDS011;40500;51.084;16.958;2022-12-10T07:29:13;47.80;;;20.10;;
54599;SDS011;40500;51.084;16.958;2022-12-10T07:31:46;44.30;;;19.60;;
54599;SDS011;40500;51.084;16.958;2022-12-10T07:34:18;38.00;;;16.80;;
54599;SDS011;40500;51.084;16.958;2022-12-10T07:36:54;41.30;;;18.00;;
54599;SDS011;40500;51.084;16.958;2022-12-10T07:39:25;32.40;;;15.80;;
54599;SDS011;40500;51.084;16.958;2022-12-10T07:42:07;43.20;;;19.40;;
54599;SDS011;40500;51.084;16.958;2022-12-10T07:44:39;40.20;;;18.20;;
54599;SDS011;40500;51.084;16.958;2022-12-10T07:47:16;39.00;;;17.00;;
54599;SDS011;40500;51.084;16.958;2022-12-10T07:49:48;46.30;;;20.80;;
54599;SDS011;40500;51.084;16.958;2022-12-10T07:52:20;34.50;;;15.40;;
54599;SDS011;40500;51.084;16.958;2022-12-10T07:54:54;33.50;;;15.40;;
54599;SDS011;40500;51.084;16.958;2022-12-10T07:57:27;35.50;;;16.30;;
54599;SDS011;40500;51.084;16.958;2022-12-10T07:59:59;31.60;;;16.00;;
54599;SDS011;40500;51.084;16.958;2022-12-10T08:02:38;34.70;;;16.30;;
54599;SDS011;40500;51.084;16.958;2022-12-10T08:05:10;34.60;;;17.00;;
54599;SDS011;40500;51.084;16.958;2022-12-10T08:07:43;40.20;;;18.10;;
54599;SDS011;40500;51.084;16.958;2022-12-10T08:10:17;32.10;;;15.80;;
54599;SDS011;40500;51.084;16.958;2022-12-10T08:12:51;31.10;;;14.00;;
54599;SDS011;40500;51.084;16.958;2022-12-10T08:15:22;32.50;;;14.80;;
54599;SDS011;40500;51.084;16.958;2022-12-10T08:18:07;33.40;;;15.80;;
54599;SDS011;40500;51.084;16.958;2022-12-10T08:20:37;50.30;;;23.10;;
54599;SDS011;40500;51.084;16.958;2022-12-10T08:23:10;38.30;;;18.00;;
54599;SDS011;40500;51.084;16.958;2022-12-10T08:25:46;37.00;;;17.20;;
54599;SDS011;40500;51.084;16.958;2022-12-10T08:28:19;43.00;;;18.70;;
54599;SDS011;40500;51.084;16.958;2022-12-10T08:30:51;44.30;;;20.30;;
54599;SDS011;40500;51.084;16.958;2022-12-10T08:33:22;37.40;;;17.20;;
54599;SDS011;40500;51.084;16.958;2022-12-10T08:35:58;32.90;;;16.30;;
54599;SDS011;40500;51.084;16.958;2022-12-10T08:38:32;32.70;;;15.20;;
54599;SDS011;40500;51.084;16.958;2022-12-10T08:41:08;41.20;;;17.80;;
54599;SDS011;40500;51.084;16.958;2022-12-10T08:43:43;44.50;;;17.30;;
54599;SDS011;40500;51.084;16.958;2022-12-10T08:46:15;47.00;;;18.90;;
54599;SDS011;40500;51.084;16.958;2022-12-10T08:48:46;45.80;;;18.80;;
54599;SDS011;40500;51.084;16.958;2022-12-10T08:51:20;44.80;;;19.40;;
54599;SDS011;40500;51.084;16.958;2022-12-10T08:53:53;42.60;;;18.80;;
54599;SDS011;40500;51.084;16.958;2022-12-10T08:56:28;52.70;;;23.70;;
54599;SDS011;40500;51.084;16.958;2022-12-10T08:59:01;37.40;;;17.00;;
54599;SDS011;40500;51.084;16.958;2022-12-10T09:01:34;40.70;;;19.70;;
54599;SDS011;40500;51.084;16.958;2022-12-10T09:04:05;40.90;;;18.40;;
54599;SDS011;40500;51.084;16.958;2022-12-10T09:06:43;32.60;;;16.20;;
54599;SDS011;40500;51.084;16.958;2022-12-10T09:09:21;40.70;;;18.90;;
54599;SDS011;40500;51.084;16.958;2022-12-10T09:11:57;37.90;;;16.60;;
54599;SDS011;40500;51.084;16.958;2022-12-10T09:14:28;42.70;;;18.70;;
54599;SDS011;40500;51.084;16.958;2022-12-10T09:17:01;42.70;;;18.10;;
54599;SDS011;40500;51.084;16.958;2022-12-10T09:19:48;37.50;;;17.00;;
54599;SDS011;40500;51.084;16.958;2022-12-10T09:22:19;33.30;;;15.50;;
54599;SDS011;40500;51.084;16.958;2022-12-10T09:24:50;40.00;;;17.00;;
54599;SDS011;40500;51.084;16.958;2022-12-10T09:27:44;46.00;;;20.50;;
54599;SDS011;40500;51.084;16.958;2022-12-10T09:30:16;42.00;;;19.00;;
54599;SDS011;40500;51.084;16.958;2022-12-10T09:32:47;33.90;;;16.60;;
54599;SDS011;40500;51.084;16.958;2022-12-10T09:35:22;34.40;;;17.00;;
54599;SDS011;40500;51.084;16.958;2022-12-10T09:37:55;34.50;;;17.20;;
54599;SDS011;40500;51.084;16.958;2022-12-10T09:40:29;31.40;;;15.60;;
54599;SDS011;40500;51.084;16.958;2022-12-10T09:43:09;33.40;;;16.50;;
54599;SDS011;40500;51.084;16.958;2022-12-10T09:45:52;36.30;;;17.70;;
54599;SDS011;40500;51.084;16.958;2022-12-10T09:48:46;33.70;;;16.80;;
54599;SDS011;40500;51.084;16.958;2022-12-10T09:51:28;26.90;;;14.00;;
54599;SDS011;40500;51.084;16.958;2022-12-10T09:54:10;31.50;;;15.80;;
54599;SDS011;40500;51.084;16.958;2022-12-10T09:56:50;32.00;;;16.20;;
54599;SDS011;40500;51.084;16.958;2022-12-10T09:59:25;41.80;;;20.80;;
54599;SDS011;40500;51.084;16.958;2022-12-10T10:02:09;33.50;;;16.30;;
54599;SDS011;40500;51.084;16.958;2022-12-10T10:04:48;28.20;;;15.00;;
54599;SDS011;40500;51.084;16.958;2022-12-10T10:07:24;37.20;;;17.70;;
54599;SDS011;40500;51.084;16.958;2022-12-10T10:10:02;35.20;;;16.50;;
54599;SDS011;40500;51.084;16.958;2022-12-10T10:15:30;28.90;;;14.90;;
54599;SDS011;40500;51.084;16.958;2022-12-10T10:18:08;44.20;;;21.80;;
54599;SDS011;40500;51.084;16.958;2022-12-10T10:23:22;40.40;;;18.00;;
54599;SDS011;40500;51.084;16.958;2022-12-10T10:25:58;28.10;;;13.90;;
54599;SDS011;40500;51.084;16.958;2022-12-10T10:28:34;29.70;;;14.20;;
54599;SDS011;40500;51.084;16.958;2022-12-10T10:31:15;37.70;;;17.70;;
54599;SDS011;40500;51.084;16.958;2022-12-10T10:34:05;37.80;;;16.90;;
54599;SDS011;40500;51.084;16.958;2022-12-10T10:36:46;48.40;;;18.30;;
54599;SDS011;40500;51.084;16.958;2022-12-10T10:39:30;32.50;;;15.90;;
54599;SDS011;40500;51.084;16.958;2022-12-10T10:42:07;35.50;;;16.60;;
54599;SDS011;40500;51.084;16.958;2022-12-10T10:44:44;39.60;;;18.40;;
54599;SDS011;40500;51.084;16.958;2022-12-10T10:47:26;51.10;;;22.10;;
54599;SDS011;40500;51.084;16.958;2022-12-10T10:50:02;32.70;;;15.00;;
54599;SDS011;40500;51.084;16.958;2022-12-10T10:52:36;39.10;;;19.00;;
54599;SDS011;40500;51.084;16.958;2022-12-10T10:55:18;30.20;;;15.10;;
54599;SDS011;40500;51.084;16.958;2022-12-10T10:58:03;38.40;;;17.70;;
54599;SDS011;40500;51.084;16.958;2022-12-10T11:00:34;38.60;;;18.50;;
54599;SDS011;40500;51.084;16.958;2022-12-10T11:03:06;43.40;;;19.60;;
54599;SDS011;40500;51.084;16.958;2022-12-10T11:05:37;33.20;;;16.30;;
54599;SDS011;40500;51.084;16.958;2022-12-10T11:08:13;31.80;;;16.00;;
54599;SDS011;40500;51.084;16.958;2022-12-10T11:10:49;38.10;;;18.00;;
54599;SDS011;40500;51.084;16.958;2022-12-10T11:13:22;41.10;;;17.90;;
54599;SDS011;40500;51.084;16.958;2022-12-10T11:15:57;35.30;;;17.80;;
54599;SDS011;40500;51.084;16.958;2022-12-10T11:18:32;43.30;;;20.60;;
54599;SDS011;40500;51.084;16.958;2022-12-10T11:21:06;29.90;;;15.60;;
54599;SDS011;40500;51.084;16.958;2022-12-10T11:23:46;34.80;;;16.50;;
54599;SDS011;40500;51.084;16.958;2022-12-10T11:26:28;34.00;;;16.40;;
54599;SDS011;40500;51.084;16.958;2022-12-10T11:29:17;37.00;;;16.90;;
54599;SDS011;40500;51.084;16.958;2022-12-10T11:31:58;30.40;;;15.10;;
54599;SDS011;40500;51.084;16.958;2022-12-10T11:34:47;28.40;;;14.80;;
54599;SDS011;40500;51.084;16.958;2022-12-10T11:37:28;31.70;;;16.70;;
54599;SDS011;40500;51.084;16.958;2022-12-10T11:40:15;33.30;;;18.00;;
54599;SDS011;40500;51.084;16.958;2022-12-10T11:42:58;31.80;;;16.00;;
54599;SDS011;40500;51.084;16.958;2022-12-10T11:45:54;29.80;;;16.10;;
54599;SDS011;40500;51.084;16.958;2022-12-10T11:48:44;27.40;;;14.10;;
54599;SDS011;40500;51.084;16.958;2022-12-10T11:51:27;30.00;;;15.40;;
54599;SDS011;40500;51.084;16.958;2022-12-10T11:54:10;32.80;;;16.90;;
54599;SDS011;40500;51.084;16.958;2022-12-10T11:56:52;41.50;;;20.90;;
54599;SDS011;40500;51.084;16.958;2022-12-10T11:59:34;42.70;;;20.20;;
54599;SDS011;40500;51.084;16.958;2022-12-10T12:02:40;41.50;;;20.40;;
54599;SDS011;40500;51.084;16.958;2022-12-10T12:05:31;31.30;;;17.30;;
54599;SDS011;40500;51.084;16.958;2022-12-10T12:08:16;31.10;;;16.70;;
54599;SDS011;40500;51.084;16.958;2022-12-10T12:11:03;34.90;;;17.50;;
54599;SDS011;40500;51.084;16.958;2022-12-10T12:13:46;33.20;;;18.30;;
54599;SDS011;40500;51.084;16.958;2022-12-10T12:16:26;29.70;;;15.70;;
54599;SDS011;40500;51.084;16.958;2022-12-10T12:19:01;37.80;;;17.40;;
54599;SDS011;40500;51.084;16.958;2022-12-10T12:21:39;31.10;;;17.40;;
54599;SDS011;40500;51.084;16.958;2022-12-10T12:24:14;33.80;;;17.10;;
54599;SDS011;40500;51.084;16.958;2022-12-10T12:26:50;36.50;;;17.50;;
54599;SDS011;40500;51.084;16.958;2022-12-10T12:29:27;32.50;;;16.60;;
54599;SDS011;40500;51.084;16.958;2022-12-10T12:32:07;38.00;;;18.90;;
54599;SDS011;40500;51.084;16.958;2022-12-10T12:34:46;43.80;;;20.80;;
54599;SDS011;40500;51.084;16.958;2022-12-10T12:37:29;31.30;;;16.20;;
54599;SDS011;40500;51.084;16.958;2022-12-10T12:40:09;38.30;;;17.50;;
54599;SDS011;40500;51.084;16.958;2022-12-10T12:42:45;31.20;;;16.10;;
54599;SDS011;40500;51.084;16.958;2022-12-10T12:45:25;35.90;;;18.00;;
54599;SDS011;40500;51.084;16.958;2022-12-10T12:48:04;31.20;;;16.50;;
54599;SDS011;40500;51.084;16.958;2022-12-10T12:50:45;33.10;;;16.20;;
54599;SDS011;40500;51.084;16.958;2022-12-10T12:53:19;34.00;;;16.70;;
54599;SDS011;40500;51.084;16.958;2022-12-10T12:55:55;34.00;;;17.40;;
54599;SDS011;40500;51.084;16.958;2022-12-10T12:58:36;41.50;;;20.40;;
54599;SDS011;40500;51.084;16.958;2022-12-10T13:01:23;49.00;;;23.20;;
54599;SDS011;40500;51.084;16.958;2022-12-10T13:04:02;36.20;;;18.30;;
54599;SDS011;40500;51.084;16.958;2022-12-10T13:06:35;46.30;;;22.40;;
54599;SDS011;40500;51.084;16.958;2022-12-10T13:09:25;35.10;;;17.40;;
54599;SDS011;40500;51.084;16.958;2022-12-10T13:12:24;39.80;;;18.90;;
54599;SDS011;40500;51.084;16.958;2022-12-10T13:15:03;33.20;;;16.90;;
54599;SDS011;40500;51.084;16.958;2022-12-10T13:18:03;39.90;;;18.10;;
54599;SDS011;40500;51.084;16.958;2022-12-10T13:20:50;34.40;;;17.60;;
54599;SDS011;40500;51.084;16.958;2022-12-10T13:23:48;47.80;;;22.60;;
54599;SDS011;40500;51.084;16.958;2022-12-10T13:26:26;31.70;;;17.20;;
54599;SDS011;40500;51.084;16.958;2022-12-10T13:29:10;34.00;;;16.10;;
54599;SDS011;40500;51.084;16.958;2022-12-10T13:31:57;45.30;;;21.10;;
54599;SDS011;40500;51.084;16.958;2022-12-10T13:34:33;36.40;;;17.30;;
54599;SDS011;40500;51.084;16.958;2022-12-10T13:37:13;38.40;;;18.10;;
54599;SDS011;40500;51.084;16.958;2022-12-10T13:39:48;36.90;;;19.00;;
54599;SDS011;40500;51.084;16.958;2022-12-10T13:42:35;49.50;;;22.40;;
54599;SDS011;40500;51.084;16.958;2022-12-10T13:45:28;47.70;;;22.10;;
54599;SDS011;40500;51.084;16.958;2022-12-10T13:48:22;35.50;;;18.20;;
54599;SDS011;40500;51.084;16.958;2022-12-10T13:51:24;42.20;;;19.90;;
54599;SDS011;40500;51.084;16.958;2022-12-10T13:54:11;38.00;;;19.00;;
54599;SDS011;40500;51.084;16.958;2022-12-10T13:56:55;31.80;;;15.40;;
54599;SDS011;40500;51.084;16.958;2022-12-10T13:59:37;44.50;;;22.00;;
54599;SDS011;40500;51.084;16.958;2022-12-10T14:02:28;54.60;;;25.10;;
54599;SDS011;40500;51.084;16.958;2022-12-10T14:05:24;45.30;;;21.00;;
54599;SDS011;40500;51.084;16.958;2022-12-10T14:08:13;40.80;;;19.80;;
54599;SDS011;40500;51.084;16.958;2022-12-10T14:10:48;48.10;;;22.00;;
54599;SDS011;40500;51.084;16.958;2022-12-10T14:13:21;45.70;;;22.10;;
54599;SDS011;40500;51.084;16.958;2022-12-10T14:16:00;37.90;;;19.30;;
54599;SDS011;40500;51.084;16.958;2022-12-10T14:18:32;39.90;;;20.20;;
54599;SDS011;40500;51.084;16.958;2022-12-10T14:21:06;45.80;;;20.50;;
54599;SDS011;40500;51.084;16.958;2022-12-10T14:23:43;58.70;;;27.60;;
54599;SDS011;40500;51.084;16.958;2022-12-10T14:26:25;33.30;;;16.90;;
54599;SDS011;40500;51.084;16.958;2022-12-10T14:28:58;44.50;;;21.60;;
54599;SDS011;40500;51.084;16.958;2022-12-10T14:31:39;55.30;;;25.80;;
54599;SDS011;40500;51.084;16.958;2022-12-10T14:34:17;48.80;;;22.10;;
54599;SDS011;40500;51.084;16.958;2022-12-10T14:36:54;44.60;;;21.30;;
54599;SDS011;40500;51.084;16.958;2022-12-10T14:39:27;55.60;;;24.20;;
54599;SDS011;40500;51.084;16.958;2022-12-10T14:42:00;41.90;;;20.00;;
54599;SDS011;40500;51.084;16.958;2022-12-10T14:44:36;39.10;;;18.80;;
54599;SDS011;40500;51.084;16.958;2022-12-10T14:47:11;35.20;;;18.40;;
54599;SDS011;40500;51.084;16.958;2022-12-10T14:49:45;39.10;;;18.50;;
54599;SDS011;40500;51.084;16.958;2022-12-10T14:52:19;64.40;;;28.00;;
54599;SDS011;40500;51.084;16.958;2022-12-10T14:54:51;50.40;;;23.80;;
54599;SDS011;40500;51.084;16.958;2022-12-10T14:57:23;47.80;;;22.60;;
54599;SDS011;40500;51.084;16.958;2022-12-10T15:00:03;53.10;;;25.60;;
54599;SDS011;40500;51.084;16.958;2022-12-10T15:02:37;59.70;;;26.90;;
54599;SDS011;40500;51.084;16.958;2022-12-10T15:05:11;47.70;;;21.20;;
54599;SDS011;40500;51.084;16.958;2022-12-10T15:07:52;42.50;;;20.10;;
54599;SDS011;40500;51.084;16.958;2022-12-10T15:10:26;41.60;;;20.00;;
54599;SDS011;40500;51.084;16.958;2022-12-10T15:13:01;45.60;;;20.80;;
54599;SDS011;40500;51.084;16.958;2022-12-10T15:15:34;58.40;;;26.10;;
54599;SDS011;40500;51.084;16.958;2022-12-10T15:18:11;40.80;;;19.30;;
54599;SDS011;40500;51.084;16.958;2022-12-10T15:20:46;46.10;;;20.50;;
54599;SDS011;40500;51.084;16.958;2022-12-10T15:23:20;41.80;;;18.90;;
54599;SDS011;40500;51.084;16.958;2022-12-10T15:25:58;45.80;;;21.10;;